Current Weather Conditions: station 44139

sailwx.info

Wind from 060 at 31 knots gusting 38

Wave height 3.4 meters (11 feet), 6 second period

Air temperature 2.0° C
Water temperature 3.9° C

Last reported at 2015-Jan-27 11:00 UTC.
Time now 2015-Jan-27 12:26 UTC

Location: N 44°12' W 057°06'.
View on Google Maps.

See reports from other nearby stations

  
Tides and Currents Weather Stations Pressure Air Temp Water Temp Dewpoint Dewpoint Depression Visibility Wind Speed Wind Dir Waves Ship Positions
date/time (UTC)wind fromknots sea level pressurealtimeterstation pressurevisibilityair tempwater tempwave heightnotes
2015-Jan-27 11:00 060 31 gusting 38 2.0 3.9 3.4
2015-Jan-27 10:00 060 29 gusting 33 1.7 4.0 2.8
2015-Jan-27 09:00 070 27 gusting 33 1.5 4.0 2.9
2015-Jan-27 07:00 060 21 gusting 27 0.6 4.2 2.9
2015-Jan-27 05:00 060 11 gusting 15 -0.5 4.2 2.9
2015-Jan-27 04:00 040 9 gusting 13 -1.1 4.2 3.1
2015-Jan-27 03:00 040 5 gusting 9 -1.5 4.1 3.0
2015-Jan-27 02:00 080 3 gusting 7 -1.7 4.0 3.3
2015-Jan-27 01:00 040 3 gusting 7 -2.0 3.9 3.2
2015-Jan-27 00:00 030 3 gusting 5 -2.3 4.0 3.6
2015-Jan-26 23:00 310 3 gusting 7 -2.4 4.0 3.9
2015-Jan-26 22:00 310 5 gusting 9 -2.5 3.9 4.2
2015-Jan-26 21:00 290 9 gusting 13 -2.3 3.7 4.1
2015-Jan-26 20:00 280 11 gusting 15 -1.9 3.7 4.3
2015-Jan-26 19:00 280 11 gusting 17 -1.5 3.7 4.2
2015-Jan-26 18:00 280 15 gusting 21 -1.6 3.7 4.7
2015-Jan-26 17:00 280 19 gusting 23 -1.2 3.8 5.0
2015-Jan-26 16:00 270 19 gusting 23 -0.5 3.8 4.7
2015-Jan-26 15:00 270 19 gusting 25 0.1 4.2 4.8
2015-Jan-26 14:00 270 19 0.6 4.0
2015-Jan-26 13:00 270 21 gusting 27 1.0 4.3 5.4
2015-Jan-26 12:00 270 23 gusting 27 1.4 4.3 5.5
2015-Jan-26 11:00 270 23 gusting 27 1.9 4.3 5.6
2015-Jan-26 10:00 260 23 gusting 29 2.0 4.2 5.6
2015-Jan-26 09:00 260 23 gusting 29 2.5 4.1 5.4
2015-Jan-26 08:00 260 25 gusting 31 2.8 4.1 5.6
2015-Jan-26 07:00 250 27 gusting 33 3.9 3.8 5.8
2015-Jan-26 06:00 250 23 gusting 29 4.4 3.8 5.5
2015-Jan-26 05:00 250 21 gusting 29 4.7 3.8 5.7
2015-Jan-26 04:00 240 19 gusting 25 5.0 3.6 6.0
2015-Jan-26 03:00 240 19 gusting 25 5.2 3.7 6.1
2015-Jan-26 02:00 240 15 gusting 21 5.0 3.8 6.7
2015-Jan-26 01:00 210 11 gusting 15 5.0 3.8 7.3
2015-Jan-26 00:00 220 13 gusting 17 4.9 3.8 8.0
2015-Jan-25 22:00 240 19 gusting 27 4.5 3.8 7.7
2015-Jan-25 21:00 240 21 gusting 27 4.6 3.9 8.1
2015-Jan-25 20:00 240 21 gusting 29 4.3 4.0 9.0
2015-Jan-25 19:00 250 27 gusting 34 4.4 4.2 8.7
2015-Jan-25 18:00 240 23 gusting 29 4.9 4.4 8.9
2015-Jan-25 17:00 250 27 gusting 34 4.9 4.4 9.5
2015-Jan-25 16:00 240 31 gusting 38 5.0 4.2 8.7
2015-Jan-25 15:00 240 29 gusting 36 5.1 4.3 8.5
2015-Jan-25 14:00 240 31 gusting 40 5.5 4.2 7.9
2015-Jan-25 13:00 230 31 gusting 38 6.8 3.9 8.0
2015-Jan-25 12:00 220 33 gusting 42 9.7 3.7 8.8